Saltar para o conteúdo principal

Miranda do Douro

ID 1210635 · 41.5167, -6.2833 mapa

Última leitura · 2026-05-09 19:00 (Europe/Lisbon)

Temperatura
11.2 °C
Humidade
88 %
Pressão
Precipitação
0.0 mm
Radiação
1,187 W/m²
Velocidade do vento
7.6 km/h
Direcção do vento
SE · Sudeste

Histórico de 24 horas

Hora (Europe/Lisbon) Temperatura Humidade Pressão Chuva Vento Direcção
2026-05-09 19:00 11.2 °C 88 % 0.0 mm 7.6 km/h SE
2026-05-09 18:00 7.5 °C 99 % 0.0 mm 0.0 km/h
2026-05-09 17:00 7.2 °C 99 % 0.0 mm 0.0 km/h
2026-05-09 16:00 14.0 °C 81 % 0.0 mm 47.9 km/h W
2026-05-09 15:00 13.8 °C 87 % 0.0 mm 1.4 km/h S
2026-05-09 14:00 12.3 °C 95 % 0.0 mm 0.4 km/h S
2026-05-09 13:00 10.5 °C 95 % 0.0 mm 12.2 km/h SE
2026-05-09 12:00 12.0 °C 90 % 0.0 mm 7.6 km/h E
2026-05-09 11:00 14.0 °C 73 % 0.0 mm 12.2 km/h E
2026-05-09 10:00 12.9 °C 77 % 0.0 mm 0.0 km/h
2026-05-09 09:00 11.7 °C 83 % 0.0 mm 2.9 km/h E
2026-05-09 08:00 10.5 °C 87 % 0.0 mm 0.0 km/h
2026-05-09 07:00 9.8 °C 92 % 0.0 mm 0.0 km/h
2026-05-09 06:00 10.2 °C 90 % 0.0 mm 1.4 km/h E
2026-05-09 05:00 10.2 °C 92 % 0.0 mm 1.4 km/h SW
2026-05-09 04:00 10.6 °C 89 % 0.0 mm 0.0 km/h
2026-05-09 03:00 10.5 °C 88 % 0.0 mm 2.9 km/h NE
2026-05-09 02:00 10.4 °C 89 % 0.0 mm 14.0 km/h E
2026-05-09 01:00 9.5 °C 92 % 0.0 mm 0.0 km/h
2026-05-09 00:00 9.1 °C 92 % 0.0 mm 0.4 km/h NE
2026-05-08 23:00 9.3 °C 96 % 0.0 mm 6.5 km/h NE
2026-05-08 22:00 9.8 °C 97 % 0.0 mm 9.7 km/h NE
2026-05-08 21:00 10.8 °C 90 % 0.0 mm 0.0 km/h
2026-05-08 20:00 12.5 °C 81 % 0.0 mm 0.0 km/h